Terminal Aerodrome Forecast
Issued by NWS Atlanta, GA

Home | Current Version | Previous Version | Text Only | Print | Product List | Glossary On
Versions: 1 2 3 4 5 6 7 8 9 10 11 12 13 14 15
750
FTUS42 KFFC 282320
TAFMCN
TAF
KMCN 282320Z 2900/2924 24008KT P6SM SCT100 SCT250
     FM291000 25004KT P6SM SCT025
     FM291400 24007KT P6SM SCT035 SCT150
     FM291800 26009KT P6SM SCT050 BKN120 PROB30 2920/2924 4SM -TSRA
      BR BKN035CB=

USA.gov is the U.S. government's official web portal to all federal, state and local government web resources and services.